Time;durP1;ratioP1;P1;durP2;ratioP2;P2;SDS_P1;SDS_P2;PMS_P1;PMS_P2;Temp;Humidity;BMP_temperature;BMP_pressure;BME280_temperature;BME280_humidity;BME280_pressure;Samples;Min_cycle;Max_cycle;Signal;HPM_P1;HPM_P2
2023/05/08 16:49:14;;;;;;;6.60;2.38;;;;;;;;;;6154148;23;20274;-90
2023/05/08 16:51:39;;;;;;;3.50;2.38;;;17.30;1.00;;;;;;6128297;23;20230;-89
2023/05/08 16:54:05;;;;;;;1.98;1.80;;;17.50;1.00;;;;;;6130063;23;20214;-91
2023/05/08 16:56:31;;;;;;;2.35;2.10;;;17.30;1.00;;;;;;6129830;23;20151;-90
2023/05/08 16:58:57;;;;;;;4.38;2.10;;;17.70;1.00;;;;;;6130259;23;20160;-89
2023/05/08 17:01:22;;;;;;;2.30;2.10;;;17.20;1.00;;;;;;6130528;23;20164;-90
2023/05/08 17:03:48;;;;;;;2.22;2.03;;;17.10;1.00;;;;;;6129981;23;20163;-90
2023/05/08 17:06:14;;;;;;;3.72;2.00;;;17.60;1.00;;;;;;6130208;23;20655;-90
2023/05/08 17:08:39;;;;;;;3.08;2.10;;;17.00;1.00;;;;;;6130226;23;20670;-90
2023/05/08 17:11:05;;;;;;;2.42;1.98;;;17.50;1.00;;;;;;6130146;23;20160;-90
2023/05/08 17:13:31;;;;;;;3.50;2.40;;;16.90;1.00;;;;;;6129604;23;20552;-92
2023/05/08 17:15:57;;;;;;;2.13;1.98;;;17.30;1.00;;;;;;6130244;23;20190;-89
2023/05/08 17:18:22;;;;;;;4.30;1.77;;;17.40;1.00;;;;;;6129267;23;20163;-89
2023/05/08 17:20:49;;;;;;;2.20;2.00;;;;;;;;;;6129673;23;20254;-90
2023/05/08 17:23:15;;;;;;;2.28;2.08;;;16.70;1.00;;;;;;6154553;23;20186;-90
2023/05/08 17:25:41;;;;;;;2.78;2.17;;;16.50;1.00;;;;;;6130360;23;20195;-89
2023/05/08 17:28:07;;;;;;;3.08;2.22;;;17.30;1.00;;;;;;6130234;23;20160;-90
2023/05/08 17:30:32;;;;;;;3.25;2.13;;;16.90;1.00;;;;;;6130703;23;20197;-90
2023/05/08 17:32:58;;;;;;;1.92;1.70;;;16.80;1.00;;;;;;6129697;23;20207;-89
2023/05/08 17:35:38;;;;;;;3.03;2.20;;;16.90;1.00;;;;;;6129599;23;20172;-91
2023/05/08 17:38:03;;;;;;;3.85;1.85;;;16.40;1.00;;;;;;6130120;23;20140;-90
2023/05/08 17:40:30;;;;;;;2.75;2.10;;;16.40;1.00;;;;;;6129984;23;20557;-89
2023/05/08 17:42:57;;;;;;;1.95;1.80;;;16.30;1.00;;;;;;6130220;23;20175;-89
2023/05/08 17:45:23;;;;;;;4.68;2.03;;;16.00;1.00;;;;;;6130295;23;20155;-90
2023/05/08 17:47:49;;;;;;;3.90;2.05;;;16.20;1.00;;;;;;6130332;23;20206;-92
2023/05/08 17:50:14;;;;;;;2.90;1.85;;;16.60;1.00;;;;;;6130877;23;20583;-92
2023/05/08 17:52:40;;;;;;;2.42;1.90;;;16.10;1.00;;;;;;6130407;23;20180;-92
2023/05/08 17:55:06;;;;;;;2.22;1.80;;;16.20;1.00;;;;;;6132301;23;20194;-93
2023/05/08 17:57:37;;;;;;;2.42;2.20;;;15.90;1.00;;;;;;6130521;23;20166;-92
2023/05/08 18:00:04;;;;;;;4.00;2.42;;;15.90;1.00;;;;;;6130084;23;20148;-92
2023/05/08 18:02:30;;;;;;;3.08;1.73;;;15.70;1.00;;;;;;6130586;23;20186;-91
2023/05/08 18:04:56;;;;;;;1.85;1.75;;;16.00;1.00;;;;;;6129620;23;20190;-92
2023/05/08 18:07:29;;;;;;;2.13;1.80;;;16.40;1.00;;;;;;6130037;23;20626;-91
2023/05/08 18:10:08;;;;;;;3.75;1.67;;;15.80;1.00;;;;;;6129838;23;20159;-92
2023/05/08 18:12:34;;;;;;;3.38;2.00;;;15.30;1.00;;;;;;6129316;23;20262;-91
2023/05/08 18:15:03;;;;;;;3.60;2.03;;;16.00;1.00;;;;;;6129746;23;20222;-89
2023/05/08 18:17:28;;;;;;;2.55;1.77;;;15.80;1.00;;;;;;6129085;23;20155;-90
2023/05/08 18:19:54;;;;;;;1.83;1.73;;;15.30;1.00;;;;;;6129370;23;20166;-89
2023/05/08 18:22:20;;;;;;;3.55;2.08;;;15.50;1.00;;;;;;6129065;23;20678;-88
2023/05/08 18:24:53;;;;;;;2.05;1.80;;;15.70;1.00;;;;;;6129365;23;20159;-90
2023/05/08 18:27:18;;;;;;;3.15;1.70;;;15.40;1.00;;;;;;6128507;23;20162;-89
2023/05/08 18:30:06;;;;;;;1.95;1.73;;;14.60;1.00;;;;;;6126563;23;20274;-90
2023/05/08 18:53:31;;;;;;;2.80;2.10;;;13.20;1.00;;;;;;6155757;23;20210;-90
2023/05/08 19:06:51;;;;;;;2.92;2.17;;;12.00;1.00;;;;;;5976583;24;20198;-88
2023/05/08 19:10:15;;;;;;;;;;;;;;;;;;;;;
2023/05/08 19:13:55;;;;;;;;;;;;;;;;;;;;;
2023/05/08 19:16:46;;;;;;;4.07;1.60;;;12.10;1.00;;;;;;5733838;24;20275;-89
2023/05/08 19:19:36;;;;;;;2.67;1.98;;;13.40;1.00;;;;;;5813108;24;20180;-88
2023/05/08 19:22:55;;;;;;;;;;;;;;;;;;;;;
2023/05/08 19:25:38;;;;;;;2.60;2.00;;;12.70;1.00;;;;;;5866711;24;20250;-89
2023/05/08 19:31:18;;;;;;;2.08;1.55;;;12.10;1.00;;;;;;5859437;24;20174;-92
2023/05/08 19:34:18;;;;;;;2.35;1.80;;;12.70;1.00;;;;;;5875497;24;20205;-91
2023/05/08 19:40:22;;;;;;;5.03;1.40;;;11.50;1.00;;;;;;6031767;23;20178;-91
2023/05/08 19:42:53;;;;;;;5.30;1.80;;;12.20;1.00;;;;;;6112793;23;20183;-88
2023/05/08 19:45:33;;;;;;;2.70;1.50;;;11.90;1.00;;;;;;6125779;23;20230;-89
2023/05/08 19:48:02;;;;;;;3.35;1.60;;;11.60;1.00;;;;;;6126684;23;20161;-89
2023/05/08 19:50:39;;;;;;;3.08;1.50;;;12.40;1.00;;;;;;6125220;23;20174;-89
2023/05/08 19:53:12;;;;;;;4.05;1.80;;;11.50;1.00;;;;;;6100541;23;20254;-88
2023/05/08 19:55:38;;;;;;;4.35;1.83;;;11.60;1.00;;;;;;6123435;23;20428;-90
2023/05/08 19:58:03;;;;;;;4.65;1.85;;;12.00;1.00;;;;;;6126656;23;20151;-90
2023/05/08 20:00:29;;;;;;;3.28;1.50;;;12.30;1.00;;;;;;6125269;23;20156;-89
2023/05/08 20:02:58;;;;;;;4.68;1.85;;;12.80;1.00;;;;;;6125636;23;20207;-89
2023/05/08 20:05:24;;;;;;;5.00;1.70;;;12.90;1.00;;;;;;6126262;23;20459;-90
2023/05/08 20:07:50;;;;;;;2.28;1.70;;;12.00;1.00;;;;;;6130944;23;20156;-90
2023/05/08 20:10:15;;;;;;;5.18;1.60;;;12.50;1.00;;;;;;6129628;23;20490;-90
2023/05/08 20:12:41;;;;;;;3.47;1.80;;;11.70;1.00;;;;;;6130153;23;20259;-90
2023/05/08 20:15:07;;;;;;;2.03;1.50;;;11.70;1.00;;;;;;6129959;23;20176;-90
2023/05/08 20:17:32;;;;;;;4.60;1.80;;;11.60;1.00;;;;;;6129976;23;20186;-90
2023/05/08 20:19:58;;;;;;;3.95;1.67;;;11.60;1.00;;;;;;6129378;23;20155;-89
2023/05/08 20:22:24;;;;;;;2.70;1.70;;;11.50;1.00;;;;;;6128396;23;20171;-90
2023/05/08 20:24:49;;;;;;;2.65;1.45;;;11.40;1.00;;;;;;6128642;23;20164;-90
2023/05/08 20:27:15;;;;;;;2.78;1.60;;;11.30;1.00;;;;;;6128873;23;20168;-90
2023/05/08 20:29:41;;;;;;;2.47;1.63;;;11.20;1.00;;;;;;6128641;23;20599;-89
2023/05/08 20:32:06;;;;;;;4.57;1.77;;;11.10;1.00;;;;;;6128499;23;20179;-90
2023/05/08 20:34:33;;;;;;;3.90;1.70;;;12.00;1.00;;;;;;6128939;23;20187;-90
2023/05/08 20:36:59;;;;;;;4.10;2.00;;;10.80;1.00;;;;;;6129215;23;20211;-91
2023/05/08 20:39:25;;;;;;;2.80;1.53;;;11.70;1.00;;;;;;6129029;23;20159;-90
2023/05/08 20:41:51;;;;;;;3.17;1.73;;;10.70;1.00;;;;;;6129038;23;20291;-91
2023/05/08 20:44:18;;;;;;;3.43;1.73;;;10.60;1.00;;;;;;6129118;23;20210;-90
2023/05/08 20:46:44;;;;;;;2.20;1.63;;;10.60;1.00;;;;;;6128722;23;20168;-91
2023/05/08 20:49:09;;;;;;;2.67;2.20;;;10.60;1.00;;;;;;6129146;23;20168;-90
2023/05/08 20:51:35;;;;;;;2.37;1.80;;;10.50;1.00;;;;;;6128848;23;20160;-91
2023/05/08 20:54:01;;;;;;;3.73;2.20;;;10.40;1.00;;;;;;6128671;23;20509;-89
2023/05/08 20:56:26;;;;;;;2.70;1.67;;;10.30;1.00;;;;;;6128775;23;20163;-89
2023/05/08 20:58:52;;;;;;;2.27;2.07;;;10.30;1.00;;;;;;6128940;23;20207;-91
2023/05/08 21:01:17;;;;;;;2.33;1.90;;;10.30;1.00;;;;;;6128355;23;20163;-90
2023/05/08 21:03:43;;;;;;;3.10;2.20;;;10.30;1.00;;;;;;6128212;23;20180;-89
2023/05/08 21:06:09;;;;;;;3.43;2.10;;;10.20;1.00;;;;;;6128297;23;20493;-90
2023/05/08 21:08:34;;;;;;;2.17;1.93;;;10.20;1.00;;;;;;6128023;23;20195;-90
2023/05/08 21:11:00;;;;;;;3.40;2.10;;;10.20;1.00;;;;;;6128450;23;20167;-90
2023/05/08 21:13:26;;;;;;;3.17;2.00;;;10.10;1.00;;;;;;6127654;23;20191;-90
2023/05/08 21:15:51;;;;;;;2.17;1.93;;;10.00;1.00;;;;;;6128410;23;20250;-90
2023/05/08 21:18:17;;;;;;;3.53;2.20;;;9.90;1.00;;;;;;6128375;23;20171;-88
2023/05/08 21:20:48;;;;;;;4.70;2.03;;;9.90;1.00;;;;;;6128033;23;20167;-90
2023/05/08 21:23:18;;;;;;;4.33;2.13;;;9.90;1.00;;;;;;6128213;23;20179;-90
2023/05/08 21:25:48;;;;;;;4.87;1.80;;;9.70;1.00;;;;;;6127982;23;20163;-91
2023/05/08 21:28:15;;;;;;;2.40;2.10;;;9.70;1.00;;;;;;6128261;23;20239;-90
2023/05/08 21:30:41;;;;;;;2.83;2.37;;;9.70;1.00;;;;;;6127886;23;20666;-90
2023/05/08 21:33:09;;;;;;;3.20;2.30;;;9.60;1.00;;;;;;6127535;23;20180;-88
2023/05/08 21:35:34;;;;;;;3.63;2.40;;;9.80;1.00;;;;;;6128067;23;20148;-90
2023/05/08 21:38:00;;;;;;;4.17;2.73;;;10.50;1.00;;;;;;6127449;23;20164;-89
2023/05/08 21:40:26;;;;;;;2.83;2.00;;;9.50;1.00;;;;;;6127975;23;20160;-91
2023/05/08 21:42:51;;;;;;;4.13;2.80;;;9.50;1.00;;;;;;6127308;23;20178;-89
2023/05/08 21:45:17;;;;;;;3.50;2.20;;;9.40;1.00;;;;;;6153870;23;20147;-90
2023/05/08 21:47:42;;;;;;;2.67;2.20;;;9.40;1.00;;;;;;6128085;23;20170;-89
2023/05/08 21:50:08;;;;;;;3.47;2.30;;;9.30;1.00;;;;;;6128064;23;20170;-90
2023/05/08 21:52:34;;;;;;;3.30;2.53;;;9.20;1.00;;;;;;6127852;23;20179;-91
2023/05/08 21:55:00;;;;;;;5.63;2.70;;;9.20;1.00;;;;;;6154385;23;20529;-89
2023/05/08 21:57:25;;;;;;;5.97;2.43;;;9.20;1.00;;;;;;6128578;23;20183;-89
2023/05/08 21:59:51;;;;;;;2.73;2.20;;;9.20;1.00;;;;;;6128645;23;20512;-91
2023/05/08 22:02:17;;;;;;;4.10;2.23;;;9.10;1.00;;;;;;6128745;23;20246;-90
2023/05/08 22:04:43;;;;;;;5.43;2.57;;;9.20;1.00;;;;;;6128857;23;20187;-88
2023/05/08 22:07:09;;;;;;;4.67;2.07;;;9.00;1.00;;;;;;6128789;23;20156;-90
2023/05/08 22:09:34;;;;;;;2.63;2.20;;;9.00;1.00;;;;;;6128955;23;20198;-90
2023/05/08 22:12:00;;;;;;;4.43;3.07;;;8.90;1.00;;;;;;6128940;23;20186;-89
2023/05/08 22:14:25;;;;;;;2.93;2.57;;;8.90;1.00;;;;;;6128469;23;20186;-89
2023/05/08 22:16:51;;;;;;;4.20;2.47;;;8.90;1.00;;;;;;6128896;23;20158;-90
2023/05/08 22:19:17;;;;;;;4.57;2.90;;;8.90;1.00;;;;;;6154814;23;20180;-91
2023/05/08 22:21:42;;;;;;;3.00;2.70;;;9.00;1.00;;;;;;6128473;23;20162;-89
2023/05/08 22:24:08;;;;;;;5.30;2.63;;;9.00;1.00;;;;;;6128684;23;20505;-90
2023/05/08 22:26:34;;;;;;;4.77;2.83;;;9.00;1.00;;;;;;6128687;23;20190;-88
2023/05/08 22:28:59;;;;;;;3.73;2.57;;;9.00;1.00;;;;;;6128838;23;20160;-91
2023/05/08 22:31:25;;;;;;;3.10;2.77;;;8.90;1.00;;;;;;6129049;23;20514;-90
2023/05/08 22:33:51;;;;;;;4.17;2.73;;;9.10;1.00;;;;;;6128508;23;20194;-89
2023/05/08 22:36:17;;;;;;;4.13;3.23;;;8.90;1.00;;;;;;6128612;23;20186;-89
2023/05/08 22:38:43;;;;;;;5.00;2.93;;;8.90;1.00;;;;;;6130848;23;20158;-89
2023/05/08 22:41:09;;;;;;;4.17;3.07;;;8.90;1.00;;;;;;6130140;23;20155;-90
2023/05/08 22:43:35;;;;;;;3.37;2.90;;;8.80;1.00;;;;;;6130088;23;20218;-90
2023/05/08 22:46:01;;;;;;;3.97;3.10;;;8.70;1.00;;;;;;6130397;23;20171;-89
2023/05/08 22:48:28;;;;;;;3.92;2.83;;;8.80;1.00;;;;;;6130257;23;20388;-90
2023/05/08 22:50:53;;;;;;;4.40;2.53;;;8.80;1.00;;;;;;6130455;23;20160;-90
2023/05/08 22:53:19;;;;;;;3.00;2.80;;;8.80;1.00;;;;;;6129889;23;20220;-90
2023/05/08 22:55:44;;;;;;;3.83;2.80;;;8.80;1.00;;;;;;6130407;23;20163;-90
2023/05/08 22:58:10;;;;;;;4.47;3.17;;;8.80;1.00;;;;;;6156035;23;20151;-90
2023/05/08 23:00:35;;;;;;;6.20;2.93;;;8.70;1.00;;;;;;6156493;23;20234;-91
2023/05/08 23:03:01;;;;;;;4.10;2.63;;;8.50;1.00;;;;;;6129979;23;20176;-89
2023/05/08 23:05:27;;;;;;;5.37;2.70;;;8.40;1.00;;;;;;6130104;23;20538;-90
2023/05/08 23:07:52;;;;;;;2.77;2.47;;;8.30;1.00;;;;;;6156299;23;20148;-89
2023/05/08 23:10:18;;;;;;;4.50;2.67;;;8.40;1.00;;;;;;6130117;23;20167;-89
2023/05/08 23:12:43;;;;;;;4.20;2.93;;;8.50;1.00;;;;;;6129842;23;20176;-88
2023/05/08 23:15:10;;;;;;;4.87;2.93;;;8.70;1.00;;;;;;6129742;23;20184;-89
2023/05/08 23:17:35;;;;;;;3.53;2.67;;;8.80;1.00;;;;;;6128668;23;20180;-89
2023/05/08 23:20:01;;;;;;;3.67;2.43;;;8.90;1.00;;;;;;6124566;23;20537;-89
2023/05/08 23:22:27;;;;;;;5.87;2.90;;;8.90;1.00;;;;;;6124921;23;20206;-90
2023/05/08 23:24:55;;;;;;;3.10;2.80;;;8.90;1.00;;;;;;6124868;23;20168;-89
2023/05/08 23:27:21;;;;;;;5.60;3.33;;;9.00;1.00;;;;;;6124941;23;20164;-91
2023/05/08 23:29:46;;;;;;;3.83;3.33;;;9.00;1.00;;;;;;6125228;23;20512;-89
2023/05/08 23:32:12;;;;;;;4.00;2.83;;;9.00;1.00;;;;;;6124607;23;20592;-89
2023/05/08 23:34:38;;;;;;;4.33;3.70;;;9.10;1.00;;;;;;6124847;23;20194;-90
2023/05/08 23:37:03;;;;;;;4.33;3.50;;;9.00;1.00;;;;;;6124743;23;20164;-91
2023/05/08 23:39:32;;;;;;;3.90;3.57;;;9.00;1.00;;;;;;6125175;23;20220;-90
2023/05/08 23:41:58;;;;;;;4.00;3.60;;;9.00;1.00;;;;;;6150441;23;20509;-90
2023/05/08 23:44:23;;;;;;;5.17;3.73;;;9.00;1.00;;;;;;6124289;23;20160;-90
2023/05/08 23:46:49;;;;;;;5.50;3.50;;;9.00;1.00;;;;;;6124612;23;20174;-90
2023/05/08 23:49:14;;;;;;;4.13;3.73;;;9.00;1.00;;;;;;6150373;23;20187;-92
2023/05/08 23:51:40;;;;;;;5.27;3.80;;;9.00;1.00;;;;;;6124621;23;20202;-91
2023/05/08 23:54:06;;;;;;;6.03;4.30;;;9.00;1.00;;;;;;6124567;23;20521;-91
2023/05/08 23:56:31;;;;;;;6.60;4.43;;;9.00;1.00;;;;;;6124644;23;20163;-90
2023/05/08 23:58:57;;;;;;;7.37;3.83;;;8.90;1.00;;;;;;6150423;23;20147;-89
